createdAt,value
2018-01-05T00:01:25.390Z,98134.34
2018-01-05T00:03:55.400Z,98130.28
2018-01-05T00:06:24.619Z,98145.90
2018-01-05T00:08:53.839Z,98164.09
2018-01-05T00:11:23.034Z,98165.05
2018-01-05T00:13:52.225Z,98167.58
2018-01-05T00:16:21.464Z,98153.84
2018-01-05T00:18:50.679Z,98149.91
2018-01-05T00:21:19.879Z,98142.18
2018-01-05T00:23:49.101Z,98149.94
2018-01-05T00:26:19.056Z,98146.97
2018-01-05T00:28:48.268Z,98140.95
2018-01-05T00:31:17.549Z,98150.81
2018-01-05T00:33:46.787Z,98155.02
2018-01-05T00:36:16.104Z,98174.73
2018-01-05T00:38:46.063Z,98177.23
2018-01-05T00:41:15.261Z,98171.98
2018-01-05T00:43:44.475Z,98175.88
2018-01-05T00:46:13.663Z,98187.77
2018-01-05T00:48:42.820Z,98171.74
2018-01-05T00:51:12.777Z,98187.95
2018-01-05T00:53:41.967Z,98198.75
2018-01-05T00:56:11.195Z,98196.74
2018-01-05T00:58:40.411Z,98201.55
2018-01-05T01:01:10.358Z,98202.36
2018-01-05T01:03:39.564Z,98202.96
2018-01-05T01:06:08.784Z,98192.69
2018-01-05T01:08:38.050Z,98208.53
2018-01-05T01:11:07.252Z,98211.42
2018-01-05T01:13:36.463Z,98211.81
2018-01-05T01:16:05.690Z,98212.80
2018-01-05T01:18:34.875Z,98213.38
2018-01-05T01:21:04.098Z,98232.65
2018-01-05T01:23:33.259Z,98245.06
2018-01-05T01:26:02.597Z,98227.36
2018-01-05T01:28:32.575Z,98241.07
2018-01-05T01:31:01.770Z,98244.19
2018-01-05T01:33:30.958Z,98245.78
2018-01-05T01:36:00.186Z,98240.02
2018-01-05T01:38:29.446Z,98236.97
2018-01-05T01:40:58.654Z,98227.20
2018-01-05T01:43:27.895Z,98210.66
2018-01-05T01:45:57.873Z,98224.53
2018-01-05T01:48:27.158Z,98212.92
2018-01-05T01:50:56.483Z,98201.77
2018-01-05T01:53:25.697Z,98198.55
2018-01-05T01:55:56.398Z,98195.82
2018-01-05T01:58:25.635Z,98186.37
2018-01-05T02:00:55.601Z,98198.68
2018-01-05T02:03:24.835Z,98197.91
2018-01-05T02:05:54.020Z,98196.94
2018-01-05T02:08:23.198Z,98194.05
2018-01-05T02:10:52.416Z,98199.49
2018-01-05T02:13:21.639Z,98200.88
2018-01-05T02:15:51.950Z,98201.27
2018-01-05T02:18:21.136Z,98189.66
2018-01-05T02:20:50.344Z,98187.03
2018-01-05T02:23:19.542Z,98185.14
2018-01-05T02:25:48.750Z,98177.25
2018-01-05T02:28:17.962Z,98176.53
2018-01-05T02:30:47.178Z,98168.92
2018-01-05T02:33:16.360Z,98154.25
2018-01-05T02:35:45.619Z,98168.25
2018-01-05T02:38:14.810Z,98170.57
2018-01-05T02:40:44.009Z,98163.47
2018-01-05T02:43:13.210Z,98147.13
2018-01-05T02:45:42.387Z,98147.15
2018-01-05T02:48:11.606Z,98144.91
2018-01-05T02:50:40.785Z,98140.09
2018-01-05T02:53:09.990Z,98142.72
2018-01-05T02:55:39.170Z,98137.20
2018-01-05T02:58:08.427Z,98131.63
2018-01-05T03:00:38.376Z,98136.06
2018-01-05T03:03:07.595Z,98133.53
2018-01-05T03:05:36.806Z,98137.00
2018-01-05T03:08:06.012Z,98139.55
2018-01-05T03:10:35.201Z,98140.02
2018-01-05T03:13:04.519Z,98138.50
2018-01-05T03:15:34.468Z,98137.35
2018-01-05T03:18:03.778Z,98141.86
2018-01-05T03:20:33.037Z,98138.19
2018-01-05T03:23:03.027Z,98141.86
2018-01-05T03:25:32.325Z,98137.92
2018-01-05T03:28:01.513Z,98126.47
2018-01-05T03:30:30.729Z,98146.39
2018-01-05T03:32:59.935Z,98135.36
2018-01-05T03:35:29.131Z,98138.95
2018-01-05T03:37:58.311Z,98147.44
2018-01-05T03:40:27.505Z,98141.08
2018-01-05T03:42:56.726Z,98129.34
2018-01-05T03:45:25.959Z,98126.56
2018-01-05T03:47:55.919Z,98119.20
2018-01-05T03:50:25.194Z,98119.13
2018-01-05T03:52:54.372Z,98119.07
2018-01-05T03:55:23.588Z,98106.09
2018-01-05T03:57:52.760Z,98108.80
2018-01-05T04:00:21.965Z,98105.80
2018-01-05T04:02:51.173Z,98105.62
2018-01-05T04:05:20.369Z,98113.95
2018-01-05T04:07:49.558Z,98122.80
2018-01-05T04:10:18.826Z,98128.23
2018-01-05T04:12:48.899Z,98119.96
2018-01-05T04:15:18.090Z,98119.30
2018-01-05T04:17:47.302Z,98125.19
2018-01-05T04:20:16.579Z,98128.52
2018-01-05T04:22:45.789Z,98102.67
2018-01-05T04:25:14.992Z,98098.20
2018-01-05T04:27:44.217Z,98093.28
2018-01-05T04:30:13.430Z,98094.50
2018-01-05T04:32:43.390Z,98099.12
2018-01-05T04:35:12.715Z,98092.70
2018-01-05T04:37:41.958Z,98085.94
2018-01-05T04:40:11.226Z,98077.35
2018-01-05T04:42:40.530Z,98081.59
2018-01-05T04:45:09.723Z,98076.08
2018-01-05T04:47:38.959Z,98069.58
2018-01-05T04:50:08.207Z,98069.22
2018-01-05T04:52:37.397Z,98077.88
2018-01-05T04:55:06.679Z,98072.31
2018-01-05T04:57:35.882Z,98062.41
2018-01-05T05:00:05.089Z,98067.55
2018-01-05T05:02:34.286Z,98061.75
2018-01-05T05:05:03.600Z,98064.16
2018-01-05T05:07:32.828Z,98069.61
2018-01-05T05:10:02.840Z,98052.30
2018-01-05T05:12:32.797Z,98054.05
2018-01-05T05:15:02.023Z,98045.91
2018-01-05T05:17:31.274Z,98059.75
2018-01-05T05:20:01.266Z,98056.42
2018-01-05T05:22:31.235Z,98059.52
2018-01-05T05:25:01.246Z,98060.58
2018-01-05T05:27:30.498Z,98064.00
2018-01-05T05:29:59.710Z,98067.22
2018-01-05T05:32:28.923Z,98067.88
2018-01-05T05:34:58.161Z,98057.63
2018-01-05T05:37:27.343Z,98051.89
2018-01-05T05:39:56.542Z,98062.52
2018-01-05T05:42:25.729Z,98054.86
2018-01-05T05:44:54.951Z,98053.57
2018-01-05T05:47:24.136Z,98065.84
2018-01-05T05:49:53.354Z,98050.36
2018-01-05T05:52:22.712Z,98048.45
2018-01-05T05:54:51.886Z,98045.72
2018-01-05T05:57:21.085Z,98046.94
2018-01-05T05:59:50.288Z,98055.68
2018-01-05T06:02:19.477Z,98071.91
2018-01-05T06:04:48.659Z,98068.97
2018-01-05T06:07:17.859Z,98071.79
2018-01-05T06:09:47.851Z,98067.83
2018-01-05T06:12:17.094Z,98076.41
2018-01-05T06:14:46.294Z,98073.59
2018-01-05T06:17:15.507Z,98068.02
2018-01-05T06:19:44.772Z,98065.75
2018-01-05T06:22:13.959Z,98074.85
2018-01-05T06:24:43.919Z,98075.91
2018-01-05T06:27:13.158Z,98085.30
2018-01-05T06:29:42.478Z,98091.14
2018-01-05T06:32:11.667Z,98101.50
2018-01-05T06:34:40.860Z,98105.84
2018-01-05T06:37:10.813Z,98100.64
2018-01-05T06:39:40.020Z,98104.91
2018-01-05T06:42:09.177Z,98108.61
2018-01-05T06:44:39.134Z,98093.11
2018-01-05T06:47:08.311Z,98106.86
2018-01-05T06:49:37.513Z,98101.31
2018-01-05T06:52:06.700Z,98103.47
2018-01-05T06:54:35.902Z,98104.78
2018-01-05T06:57:05.126Z,98106.68
2018-01-05T06:59:34.363Z,98106.47
2018-01-05T07:02:04.316Z,98118.83
2018-01-05T07:04:33.530Z,98119.19
2018-01-05T07:07:02.720Z,98120.73
2018-01-05T07:09:31.908Z,98121.30
2018-01-05T07:12:01.119Z,98118.23
2018-01-05T07:14:30.347Z,98124.80
2018-01-05T07:16:59.607Z,98131.36
2018-01-05T07:19:28.872Z,98141.94
2018-01-05T07:21:58.847Z,98144.85
2018-01-05T07:24:28.053Z,98144.64
2018-01-05T07:26:57.228Z,98156.42
2018-01-05T07:29:26.426Z,98159.33
2018-01-05T07:31:55.635Z,98155.48
2018-01-05T07:34:24.850Z,98161.67
2018-01-05T07:36:54.067Z,98158.83
2018-01-05T07:39:24.032Z,98169.41
2018-01-05T07:41:53.232Z,98167.73
2018-01-05T07:44:22.438Z,98172.92
2018-01-05T07:46:51.643Z,98183.36
2018-01-05T07:49:20.863Z,98183.16
2018-01-05T07:51:50.128Z,98189.80
2018-01-05T07:54:19.301Z,98189.98
2018-01-05T07:56:48.495Z,98202.42
2018-01-05T07:59:17.688Z,98211.90
2018-01-05T08:01:46.895Z,98228.36
2018-01-05T08:04:16.149Z,98226.05
2018-01-05T08:06:46.102Z,98235.78
2018-01-05T08:09:15.292Z,98238.23
2018-01-05T08:11:44.641Z,98245.73
2018-01-05T08:14:14.020Z,98259.17
2018-01-05T08:16:43.235Z,98264.95
2018-01-05T08:19:12.467Z,98259.51
2018-01-05T08:21:42.494Z,98263.49
2018-01-05T08:24:11.698Z,98261.93
2018-01-05T08:26:40.912Z,98256.67
2018-01-05T08:29:10.107Z,98259.56
2018-01-05T08:31:39.326Z,98264.92
2018-01-05T08:34:08.644Z,98260.67
2018-01-05T08:36:37.856Z,98267.48
2018-01-05T08:39:07.083Z,98275.61
2018-01-05T08:41:36.311Z,98280.91
2018-01-05T08:44:05.523Z,98280.77
2018-01-05T08:46:34.727Z,98277.39
2018-01-05T08:49:03.928Z,98287.03
2018-01-05T08:51:33.103Z,98277.41
2018-01-05T08:54:02.281Z,98288.24
2018-01-05T08:56:31.453Z,98296.58
2018-01-05T08:59:00.778Z,98290.41
2018-01-05T09:01:29.995Z,98285.56
2018-01-05T09:03:59.194Z,98309.00
2018-01-05T09:06:28.382Z,98300.72
2018-01-05T09:08:57.579Z,98302.19
2018-01-05T09:11:26.776Z,98307.58
2018-01-05T09:13:56.227Z,98296.92
2018-01-05T09:16:25.405Z,98307.19
2018-01-05T09:18:54.627Z,98317.53
2018-01-05T09:21:23.893Z,98315.45
2018-01-05T09:23:53.059Z,98324.75
2018-01-05T09:26:22.330Z,98335.66
2018-01-05T09:28:51.463Z,98331.03
2018-01-05T09:31:20.706Z,98330.88
2018-01-05T09:33:49.906Z,98342.85
2018-01-05T09:36:19.886Z,98338.61
2018-01-05T09:38:49.079Z,98332.64
2018-01-05T09:41:18.374Z,98348.38
2018-01-05T09:43:47.592Z,98350.84
2018-01-05T09:46:16.787Z,98362.95
2018-01-05T09:48:46.014Z,98347.17
2018-01-05T09:51:15.984Z,98341.28
2018-01-05T09:53:45.214Z,98341.49
2018-01-05T09:56:14.435Z,98341.88
2018-01-05T09:58:43.715Z,98334.09
2018-01-05T10:01:12.983Z,98343.00
2018-01-05T10:03:42.159Z,98342.25
2018-01-05T10:06:11.378Z,98346.78
2018-01-05T10:08:40.849Z,98349.73
2018-01-05T10:11:10.055Z,98349.03
2018-01-05T10:13:39.243Z,98357.49
2018-01-05T10:16:08.459Z,98358.25
2018-01-05T10:18:37.660Z,98351.06
2018-01-05T10:21:06.962Z,98357.55
2018-01-05T10:23:36.241Z,98358.45
2018-01-05T10:26:05.472Z,98360.16
2018-01-05T10:28:34.767Z,98361.92
2018-01-05T10:31:03.972Z,98359.97
2018-01-05T10:33:33.208Z,98367.14
2018-01-05T10:36:03.164Z,98379.15
2018-01-05T10:38:32.428Z,98371.83
2018-01-05T10:41:01.698Z,98376.94
2018-01-05T10:43:30.935Z,98383.77
2018-01-05T10:46:00.123Z,98379.36
2018-01-05T10:48:29.353Z,98375.30
2018-01-05T10:50:58.742Z,98377.44
2018-01-05T10:53:28.779Z,98380.61
2018-01-05T10:55:57.984Z,98381.62
2018-01-05T10:58:27.174Z,98372.58
2018-01-05T11:00:56.406Z,98381.08
2018-01-05T11:03:25.606Z,98381.11
2018-01-05T11:05:55.606Z,98380.24
2018-01-05T11:08:24.807Z,98380.90
2018-01-05T11:10:54.021Z,98383.76
2018-01-05T11:13:24.024Z,98383.76
2018-01-05T11:15:53.230Z,98390.49
2018-01-05T11:18:23.213Z,98394.27
2018-01-05T11:20:52.471Z,98399.72
2018-01-05T11:23:22.424Z,98399.33
2018-01-05T11:25:51.643Z,98402.25
2018-01-05T11:28:20.867Z,98399.04
2018-01-05T11:30:50.215Z,98399.84
2018-01-05T11:33:19.456Z,98403.57
2018-01-05T11:35:48.635Z,98396.22
2018-01-05T11:38:17.848Z,98400.56
2018-01-05T11:40:47.035Z,98403.65
2018-01-05T11:43:16.226Z,98411.17
2018-01-05T11:45:45.444Z,98405.25
2018-01-05T11:48:15.439Z,98398.08
2018-01-05T11:50:44.732Z,98399.11
2018-01-05T11:53:13.935Z,98403.83
2018-01-05T11:55:43.156Z,98395.14
2018-01-05T11:58:13.109Z,98388.09
2018-01-05T12:00:42.326Z,98383.25
2018-01-05T12:03:11.524Z,98378.27
2018-01-05T12:05:40.806Z,98386.84
2018-01-05T12:08:09.993Z,98378.08
2018-01-05T12:10:39.252Z,98378.78
2018-01-05T12:13:08.589Z,98385.73
2018-01-05T12:15:37.789Z,98389.71
2018-01-05T12:18:07.097Z,98391.55
2018-01-05T12:20:36.283Z,98395.64
2018-01-05T12:23:05.476Z,98399.19
2018-01-05T12:25:34.695Z,98403.20
2018-01-05T12:28:03.924Z,98390.56
2018-01-05T12:30:33.143Z,98393.28
2018-01-05T12:33:03.143Z,98381.31
2018-01-05T12:35:33.128Z,98382.28
2018-01-05T12:38:02.323Z,98382.17
2018-01-05T12:40:31.528Z,98377.69
2018-01-05T12:43:00.722Z,98374.03
2018-01-05T12:45:29.932Z,98369.05
2018-01-05T12:47:59.177Z,98370.22
2018-01-05T12:50:28.410Z,98363.06
2018-01-05T12:52:57.639Z,98365.22
2018-01-05T12:55:26.855Z,98366.25
2018-01-05T12:57:56.820Z,98371.92
2018-01-05T13:00:26.049Z,98369.19
2018-01-05T13:02:55.259Z,98373.27
2018-01-05T13:05:25.258Z,98375.86
2018-01-05T13:07:54.457Z,98378.95
2018-01-05T13:10:23.670Z,98378.58
2018-01-05T13:12:53.626Z,98377.23
2018-01-05T13:15:22.978Z,98376.84
2018-01-05T13:17:52.179Z,98382.65
2018-01-05T13:20:22.179Z,98395.57
2018-01-05T13:22:52.150Z,98385.75
2018-01-05T13:25:21.364Z,98376.64
2018-01-05T13:27:50.530Z,98387.43
2018-01-05T13:30:19.739Z,98387.31
2018-01-05T13:32:48.948Z,98391.58
2018-01-05T13:35:18.167Z,98396.20
2018-01-05T13:37:47.430Z,98393.50
2018-01-05T13:40:17.479Z,98400.91
2018-01-05T13:42:47.402Z,98404.27
2018-01-05T13:45:16.599Z,98408.82
2018-01-05T13:47:45.824Z,98412.30
2018-01-05T13:50:15.048Z,98413.28
2018-01-05T13:52:44.267Z,98417.03
2018-01-05T13:55:13.474Z,98420.45
2018-01-05T13:57:42.674Z,98432.65
2018-01-05T14:00:11.881Z,98433.04
2018-01-05T14:02:41.143Z,98436.67
2018-01-05T14:05:10.368Z,98434.09
2018-01-05T14:07:39.648Z,98436.20
2018-01-05T14:10:08.847Z,98438.22
2018-01-05T14:12:38.153Z,98421.42
2018-01-05T14:15:07.287Z,98423.86
2018-01-05T14:17:36.504Z,98432.59
2018-01-05T14:20:05.746Z,98428.34
2018-01-05T14:22:34.978Z,98427.45
2018-01-05T14:25:04.473Z,98430.39
2018-01-05T14:27:33.680Z,98422.14
2018-01-05T14:30:02.938Z,98434.00
2018-01-05T14:32:32.111Z,98439.64
2018-01-05T14:35:01.342Z,98426.81
2018-01-05T14:37:30.550Z,98434.62
2018-01-05T14:39:59.796Z,98442.76
2018-01-05T14:42:29.789Z,98437.54
2018-01-05T14:44:59.050Z,98446.59
2018-01-05T14:47:28.363Z,98444.34
2018-01-05T14:49:57.568Z,98450.53
2018-01-05T14:52:26.839Z,98448.05
2018-01-05T14:54:56.063Z,98440.50
2018-01-05T14:57:25.288Z,98438.65
2018-01-05T14:59:54.516Z,98441.16
2018-01-05T15:02:23.728Z,98437.23
2018-01-05T15:04:52.924Z,98440.83
2018-01-05T15:07:22.175Z,98446.34
2018-01-05T15:09:51.385Z,98450.75
2018-01-05T15:12:21.396Z,98460.23
2018-01-05T15:14:51.482Z,98449.62
2018-01-05T15:17:20.688Z,98443.15
2018-01-05T15:19:49.883Z,98437.47
2018-01-05T15:22:19.159Z,98436.24
2018-01-05T15:24:48.382Z,98434.66
2018-01-05T15:27:17.591Z,98447.15
2018-01-05T15:29:46.870Z,98457.55
2018-01-05T15:32:16.143Z,98451.69
2018-01-05T15:34:45.372Z,98443.47
2018-01-05T15:37:14.615Z,98453.09
2018-01-05T15:39:43.832Z,98451.96
2018-01-05T15:42:13.051Z,98454.31
2018-01-05T15:44:42.254Z,98454.35
2018-01-05T15:47:11.477Z,98452.19
2018-01-05T15:49:40.720Z,98462.25
2018-01-05T15:52:09.907Z,98452.31
2018-01-05T15:54:39.103Z,98442.23
2018-01-05T15:57:08.457Z,98432.53
2018-01-05T15:59:37.653Z,98442.35
2018-01-05T16:02:06.873Z,98453.56
2018-01-05T16:04:36.846Z,98459.95
2018-01-05T16:07:06.066Z,98465.25
2018-01-05T16:09:35.252Z,98460.64
2018-01-05T16:12:04.524Z,98451.80
2018-01-05T16:14:33.830Z,98454.81
2018-01-05T16:17:03.035Z,98453.58
2018-01-05T16:19:32.289Z,98450.69
2018-01-05T16:22:02.304Z,98453.09
2018-01-05T16:24:32.290Z,98450.87
2018-01-05T16:27:01.558Z,98454.48
2018-01-05T16:29:30.903Z,98463.95
2018-01-05T16:32:01.043Z,98469.28
2018-01-05T16:34:31.036Z,98473.25
2018-01-05T16:37:00.240Z,98472.28
2018-01-05T16:39:30.235Z,98468.67
2018-01-05T16:41:59.487Z,98467.50
2018-01-05T16:44:28.682Z,98476.19
2018-01-05T16:46:57.962Z,98469.03
2018-01-05T16:49:27.948Z,98474.74
2018-01-05T16:51:57.147Z,98470.89
2018-01-05T16:54:26.355Z,98467.16
2018-01-05T16:56:55.554Z,98467.27
2018-01-05T16:59:24.775Z,98468.17
2018-01-05T17:01:53.981Z,98477.11
2018-01-05T17:04:23.174Z,98472.70
2018-01-05T17:06:52.412Z,98468.67
2018-01-05T17:09:21.684Z,98472.73
2018-01-05T17:11:50.824Z,98467.39
2018-01-05T17:14:20.023Z,98457.70
2018-01-05T17:16:49.240Z,98450.15
2018-01-05T17:19:18.590Z,98456.97
2018-01-05T17:21:47.848Z,98457.69
2018-01-05T17:24:17.078Z,98467.61
2018-01-05T17:26:46.418Z,98478.38
2018-01-05T17:29:15.652Z,98476.39
2018-01-05T17:31:44.911Z,98466.34
2018-01-05T17:34:14.123Z,98465.80
2018-01-05T17:36:44.834Z,98461.16
2018-01-05T17:39:14.068Z,98459.20
2018-01-05T17:41:43.414Z,98451.47
2018-01-05T17:44:12.794Z,98449.13
2018-01-05T17:46:42.883Z,98447.51
2018-01-05T17:49:12.217Z,98455.34
2018-01-05T17:51:41.541Z,98466.00
2018-01-05T17:54:10.844Z,98460.41
2018-01-05T17:56:40.120Z,98468.34
2018-01-05T17:59:09.378Z,98465.78
2018-01-05T18:01:40.097Z,98463.11
2018-01-05T18:04:09.288Z,98464.44
2018-01-05T18:06:38.654Z,98465.61
2018-01-05T18:09:07.996Z,98461.25
2018-01-05T18:11:38.028Z,98463.63
2018-01-05T18:14:07.999Z,98463.63
2018-01-05T18:16:37.218Z,98457.38
2018-01-05T18:19:06.411Z,98449.97
2018-01-05T18:21:35.643Z,98453.85
2018-01-05T18:24:05.643Z,98460.16
2018-01-05T18:26:34.896Z,98470.02
2018-01-05T18:29:04.126Z,98468.49
2018-01-05T18:31:33.387Z,98466.56
2018-01-05T18:34:02.676Z,98471.41
2018-01-05T18:36:32.055Z,98473.61
2018-01-05T18:39:01.321Z,98470.33
2018-01-05T18:41:30.531Z,98474.43
2018-01-05T18:43:59.758Z,98467.13
2018-01-05T18:46:29.029Z,98478.05
2018-01-05T18:48:58.253Z,98482.54
2018-01-05T18:51:28.218Z,98475.30
2018-01-05T18:53:57.458Z,98475.30
2018-01-05T18:56:27.551Z,98478.43
2018-01-05T18:58:56.873Z,98489.57
2018-01-05T19:01:26.927Z,98491.34
2018-01-05T19:03:56.198Z,98507.41
2018-01-05T19:06:26.266Z,98510.13
2018-01-05T19:08:55.670Z,98505.67
2018-01-05T19:11:25.004Z,98514.03
2018-01-05T19:13:55.003Z,98514.25
2018-01-05T19:16:24.199Z,98524.43
2018-01-05T19:18:53.414Z,98520.25
2018-01-05T19:21:22.719Z,98520.92
2018-01-05T19:23:51.929Z,98527.01
2018-01-05T19:26:21.902Z,98525.30
2018-01-05T19:28:51.163Z,98525.90
2018-01-05T19:31:20.432Z,98531.49
2018-01-05T19:33:50.415Z,98532.98
2018-01-05T19:36:19.639Z,98529.52
2018-01-05T19:38:49.627Z,98535.97
2018-01-05T19:41:18.821Z,98525.97
2018-01-05T19:43:48.047Z,98538.91
2018-01-05T19:46:17.542Z,98539.34
2018-01-05T19:48:46.776Z,98549.42
2018-01-05T19:51:15.989Z,98551.42
2018-01-05T19:53:45.351Z,98553.91
2018-01-05T19:56:15.363Z,98558.44
2018-01-05T19:58:44.568Z,98553.44
2018-01-05T20:01:14.537Z,98559.16
2018-01-05T20:03:43.768Z,98562.92
2018-01-05T20:06:13.728Z,98566.05
2018-01-05T20:08:42.991Z,98563.49
2018-01-05T20:11:13.088Z,98567.52
2018-01-05T20:13:42.306Z,98575.15
2018-01-05T20:16:12.322Z,98564.80
2018-01-05T20:18:42.300Z,98577.63
2018-01-05T20:21:11.568Z,98578.38
2018-01-05T20:23:40.768Z,98590.53
2018-01-05T20:26:09.965Z,98603.70
2018-01-05T20:28:39.371Z,98611.64
2018-01-05T20:31:08.649Z,98618.27
2018-01-05T20:33:38.690Z,98619.78
2018-01-05T20:36:08.090Z,98623.17
2018-01-05T20:38:37.329Z,98624.92
2018-01-05T20:41:06.567Z,98630.16
2018-01-05T20:43:35.766Z,98636.15
2018-01-05T20:46:04.998Z,98638.40
2018-01-05T20:48:34.214Z,98642.94
2018-01-05T20:51:03.622Z,98652.48
2018-01-05T20:53:32.975Z,98657.48
2018-01-05T20:56:02.355Z,98662.69
2018-01-05T20:58:32.339Z,98655.23
2018-01-05T21:01:02.391Z,98660.48
2018-01-05T21:03:32.465Z,98669.39
2018-01-05T21:06:01.976Z,98671.78
2018-01-05T21:08:31.179Z,98664.23
2018-01-05T21:11:00.447Z,98679.55
2018-01-05T21:13:29.712Z,98679.30
2018-01-05T21:15:59.028Z,98683.61
2018-01-05T21:18:28.622Z,98682.90
2018-01-05T21:20:57.878Z,98684.81
2018-01-05T21:23:27.097Z,98681.86
2018-01-05T21:25:56.365Z,98690.61
2018-01-05T21:28:25.686Z,98696.80
2018-01-05T21:30:55.075Z,98693.52
2018-01-05T21:33:24.323Z,98702.40
2018-01-05T21:35:53.611Z,98699.54
2018-01-05T21:38:22.818Z,98706.34
2018-01-05T21:40:52.232Z,98714.44
2018-01-05T21:43:21.480Z,98717.16
2018-01-05T21:45:50.688Z,98712.08
2018-01-05T21:48:20.659Z,98727.01
2018-01-05T21:50:49.843Z,98729.41
2018-01-05T21:53:19.050Z,98733.91
2018-01-05T21:55:48.287Z,98731.51
2018-01-05T21:58:18.295Z,98745.23
2018-01-05T22:00:47.536Z,98740.00
2018-01-05T22:03:16.950Z,98748.94
2018-01-05T22:05:46.182Z,98754.25
2018-01-05T22:08:15.463Z,98759.98
2018-01-05T22:10:44.733Z,98760.28
2018-01-05T22:13:13.964Z,98782.04
2018-01-05T22:15:43.208Z,98775.38
2018-01-05T22:18:13.207Z,98779.83
2018-01-05T22:20:43.241Z,98778.94
2018-01-05T22:23:12.452Z,98784.66
2018-01-05T22:25:42.447Z,98790.98
2018-01-05T22:28:12.483Z,98794.94
2018-01-05T22:30:42.451Z,98794.55
2018-01-05T22:33:11.815Z,98802.13
2018-01-05T22:35:40.952Z,98790.70
2018-01-05T22:38:11.154Z,98793.96
2018-01-05T22:40:41.239Z,98801.84
2018-01-05T22:43:10.507Z,98806.81
2018-01-05T22:45:40.504Z,98798.52
2018-01-05T22:48:09.775Z,98804.48
2018-01-05T22:50:39.090Z,98807.06
2018-01-05T22:53:08.326Z,98800.30
2018-01-05T22:55:37.546Z,98809.14
2018-01-05T22:58:06.748Z,98814.84
2018-01-05T23:00:35.945Z,98816.27
2018-01-05T23:03:05.157Z,98818.41
2018-01-05T23:05:34.359Z,98833.09
2018-01-05T23:08:03.727Z,98839.49
2018-01-05T23:10:34.251Z,98844.45
2018-01-05T23:13:03.568Z,98849.14
2018-01-05T23:15:32.758Z,98862.48
2018-01-05T23:18:02.005Z,98859.13
2018-01-05T23:20:31.235Z,98861.69
2018-01-05T23:23:00.408Z,98865.72
2018-01-05T23:25:29.651Z,98864.84
2018-01-05T23:27:59.685Z,98869.85
2018-01-05T23:30:28.898Z,98874.47
2018-01-05T23:32:58.059Z,98872.05
2018-01-05T23:35:27.319Z,98874.19
2018-01-05T23:37:58.045Z,98872.92
2018-01-05T23:40:28.268Z,98876.52
2018-01-05T23:42:57.456Z,98882.88
2018-01-05T23:45:26.653Z,98879.16
2018-01-05T23:47:55.858Z,98880.06
2018-01-05T23:50:25.068Z,98885.17
2018-01-05T23:52:54.264Z,98883.21
2018-01-05T23:55:23.465Z,98887.03
2018-01-05T23:57:54.257Z,98885.20
